sensor_id;sensor_type;location;lat;lon;timestamp;temperature;humidity
6098;DHT22;3077;50.922;6.584;2024-01-11T00:01:34;-3.10;90.90
6098;DHT22;3077;50.922;6.584;2024-01-11T00:04:00;-3.00;91.90
6098;DHT22;3077;50.922;6.584;2024-01-11T00:06:25;-3.00;92.30
6098;DHT22;3077;50.922;6.584;2024-01-11T00:08:51;-2.90;92.10
6098;DHT22;3077;50.922;6.584;2024-01-11T00:11:16;-2.90;92.70
6098;DHT22;3077;50.922;6.584;2024-01-11T00:13:42;-2.90;92.60
6098;DHT22;3077;50.922;6.584;2024-01-11T00:16:07;-2.80;99.90
6098;DHT22;3077;50.922;6.584;2024-01-11T00:18:33;-3.00;92.20
6098;DHT22;3077;50.922;6.584;2024-01-11T00:20:58;-3.00;92.90
6098;DHT22;3077;50.922;6.584;2024-01-11T00:23:24;-2.90;93.40
6098;DHT22;3077;50.922;6.584;2024-01-11T00:25:49;-2.90;93.80
6098;DHT22;3077;50.922;6.584;2024-01-11T00:28:15;-2.90;93.80
6098;DHT22;3077;50.922;6.584;2024-01-11T00:30:41;-2.90;91.90
6098;DHT22;3077;50.922;6.584;2024-01-11T00:33:06;-3.10;89.80
6098;DHT22;3077;50.922;6.584;2024-01-11T00:35:32;-3.20;90.80
6098;DHT22;3077;50.922;6.584;2024-01-11T00:37:57;-3.10;92.80
6098;DHT22;3077;50.922;6.584;2024-01-11T00:40:23;-3.20;93.10
6098;DHT22;3077;50.922;6.584;2024-01-11T00:42:49;-3.10;94.70
6098;DHT22;3077;50.922;6.584;2024-01-11T00:45:14;-3.10;94.00
6098;DHT22;3077;50.922;6.584;2024-01-11T00:47:40;-3.10;94.20
6098;DHT22;3077;50.922;6.584;2024-01-11T00:50:06;-2.40;95.20
6098;DHT22;3077;50.922;6.584;2024-01-11T00:52:32;-3.30;95.70
6098;DHT22;3077;50.922;6.584;2024-01-11T00:54:57;-3.30;94.90
6098;DHT22;3077;50.922;6.584;2024-01-11T00:57:23;-2.80;95.20
6098;DHT22;3077;50.922;6.584;2024-01-11T00:59:48;-3.20;95.30
6098;DHT22;3077;50.922;6.584;2024-01-11T01:02:14;-3.20;95.30
6098;DHT22;3077;50.922;6.584;2024-01-11T01:04:40;-3.30;97.30
6098;DHT22;3077;50.922;6.584;2024-01-11T01:07:05;-3.20;97.00
6098;DHT22;3077;50.922;6.584;2024-01-11T01:09:31;-3.30;97.60
6098;DHT22;3077;50.922;6.584;2024-01-11T01:11:57;-3.20;98.50
6098;DHT22;3077;50.922;6.584;2024-01-11T01:14:22;-3.10;97.90
6098;DHT22;3077;50.922;6.584;2024-01-11T01:16:48;-3.10;97.80
6098;DHT22;3077;50.922;6.584;2024-01-11T01:19:13;-3.10;98.10
6098;DHT22;3077;50.922;6.584;2024-01-11T01:21:39;-3.10;96.60
6098;DHT22;3077;50.922;6.584;2024-01-11T01:24:05;-3.20;96.40
6098;DHT22;3077;50.922;6.584;2024-01-11T01:26:30;-3.20;97.00
6098;DHT22;3077;50.922;6.584;2024-01-11T01:28:56;-3.30;98.60
6098;DHT22;3077;50.922;6.584;2024-01-11T01:31:22;-3.20;99.00
6098;DHT22;3077;50.922;6.584;2024-01-11T01:33:47;-3.20;99.00
6098;DHT22;3077;50.922;6.584;2024-01-11T01:36:13;-3.50;99.90
6098;DHT22;3077;50.922;6.584;2024-01-11T01:38:38;-3.20;98.50
6098;DHT22;3077;50.922;6.584;2024-01-11T01:41:04;-3.30;98.20
6098;DHT22;3077;50.922;6.584;2024-01-11T01:43:30;-3.40;99.60
6098;DHT22;3077;50.922;6.584;2024-01-11T01:45:56;-3.30;99.90
6098;DHT22;3077;50.922;6.584;2024-01-11T01:48:21;-3.40;99.90
6098;DHT22;3077;50.922;6.584;2024-01-11T01:50:47;-3.40;99.90
6098;DHT22;3077;50.922;6.584;2024-01-11T01:53:20;-3.40;99.90
6098;DHT22;3077;50.922;6.584;2024-01-11T01:55:46;-3.40;99.90
6098;DHT22;3077;50.922;6.584;2024-01-11T01:58:14;-3.50;99.90
6098;DHT22;3077;50.922;6.584;2024-01-11T02:00:40;-3.40;99.90
6098;DHT22;3077;50.922;6.584;2024-01-11T02:03:07;-3.50;99.90
6098;DHT22;3077;50.922;6.584;2024-01-11T02:05:33;-3.50;99.90
6098;DHT22;3077;50.922;6.584;2024-01-11T02:08:01;-3.50;99.90
6098;DHT22;3077;50.922;6.584;2024-01-11T02:10:30;-3.50;99.90
6098;DHT22;3077;50.922;6.584;2024-01-11T02:12:58;-3.50;99.90
6098;DHT22;3077;50.922;6.584;2024-01-11T02:15:24;-3.50;99.90
6098;DHT22;3077;50.922;6.584;2024-01-11T02:17:49;-3.50;99.90
6098;DHT22;3077;50.922;6.584;2024-01-11T02:20:15;-3.60;99.90
6098;DHT22;3077;50.922;6.584;2024-01-11T02:22:44;-3.60;99.90
6098;DHT22;3077;50.922;6.584;2024-01-11T02:25:12;-3.60;99.90
6098;DHT22;3077;50.922;6.584;2024-01-11T02:27:49;-3.50;99.90
6098;DHT22;3077;50.922;6.584;2024-01-11T02:30:16;-3.60;99.90
6098;DHT22;3077;50.922;6.584;2024-01-11T02:32:46;-3.40;99.90
6098;DHT22;3077;50.922;6.584;2024-01-11T02:35:14;-3.60;99.90
6098;DHT22;3077;50.922;6.584;2024-01-11T02:37:40;-3.60;99.90
6098;DHT22;3077;50.922;6.584;2024-01-11T02:40:09;-3.80;99.90
6098;DHT22;3077;50.922;6.584;2024-01-11T02:42:35;-3.90;99.90
6098;DHT22;3077;50.922;6.584;2024-01-11T02:45:03;-3.80;99.90
6098;DHT22;3077;50.922;6.584;2024-01-11T02:47:28;-4.00;99.90
6098;DHT22;3077;50.922;6.584;2024-01-11T02:49:54;-3.80;99.90
6098;DHT22;3077;50.922;6.584;2024-01-11T02:52:19;-3.70;99.90
6098;DHT22;3077;50.922;6.584;2024-01-11T02:54:45;-3.80;99.90
6098;DHT22;3077;50.922;6.584;2024-01-11T02:57:11;-3.90;99.90
6098;DHT22;3077;50.922;6.584;2024-01-11T02:59:36;-3.90;99.90
6098;DHT22;3077;50.922;6.584;2024-01-11T03:02:02;-3.70;99.90
6098;DHT22;3077;50.922;6.584;2024-01-11T03:04:28;-3.50;99.90
6098;DHT22;3077;50.922;6.584;2024-01-11T03:06:53;-3.60;99.90
6098;DHT22;3077;50.922;6.584;2024-01-11T03:09:19;-3.40;99.90
6098;DHT22;3077;50.922;6.584;2024-01-11T03:11:44;-3.50;99.90
6098;DHT22;3077;50.922;6.584;2024-01-11T03:14:10;-3.50;99.90
6098;DHT22;3077;50.922;6.584;2024-01-11T03:16:35;-3.50;99.90
6098;DHT22;3077;50.922;6.584;2024-01-11T03:19:01;-3.40;99.90
6098;DHT22;3077;50.922;6.584;2024-01-11T03:21:27;-3.30;99.90
6098;DHT22;3077;50.922;6.584;2024-01-11T03:23:53;-3.40;99.90
6098;DHT22;3077;50.922;6.584;2024-01-11T03:26:18;-3.40;98.10
6098;DHT22;3077;50.922;6.584;2024-01-11T03:28:44;-3.60;96.20
6098;DHT22;3077;50.922;6.584;2024-01-11T03:31:10;-3.80;99.70
6098;DHT22;3077;50.922;6.584;2024-01-11T03:33:36;-3.80;99.90
6098;DHT22;3077;50.922;6.584;2024-01-11T03:36:12;-3.40;99.90
6098;DHT22;3077;50.922;6.584;2024-01-11T03:38:38;-3.90;99.90
6098;DHT22;3077;50.922;6.584;2024-01-11T03:41:10;-3.70;99.90
6098;DHT22;3077;50.922;6.584;2024-01-11T03:43:36;-3.60;99.90
6098;DHT22;3077;50.922;6.584;2024-01-11T03:46:02;-3.60;99.90
6098;DHT22;3077;50.922;6.584;2024-01-11T03:48:28;-3.70;99.90
6098;DHT22;3077;50.922;6.584;2024-01-11T03:50:53;-3.50;99.90
6098;DHT22;3077;50.922;6.584;2024-01-11T03:53:19;-3.80;99.90
6098;DHT22;3077;50.922;6.584;2024-01-11T03:55:45;-3.80;99.90
6098;DHT22;3077;50.922;6.584;2024-01-11T03:58:11;-3.90;99.90
6098;DHT22;3077;50.922;6.584;2024-01-11T04:00:36;-4.10;99.90
6098;DHT22;3077;50.922;6.584;2024-01-11T04:03:02;-4.20;99.90
6098;DHT22;3077;50.922;6.584;2024-01-11T04:05:28;-4.40;99.90
6098;DHT22;3077;50.922;6.584;2024-01-11T04:07:53;-4.30;99.90
6098;DHT22;3077;50.922;6.584;2024-01-11T04:10:19;-4.30;99.90
6098;DHT22;3077;50.922;6.584;2024-01-11T04:12:44;-4.30;99.90
6098;DHT22;3077;50.922;6.584;2024-01-11T04:15:13;-4.30;99.90
6098;DHT22;3077;50.922;6.584;2024-01-11T04:17:39;-4.30;99.90
6098;DHT22;3077;50.922;6.584;2024-01-11T04:20:06;-4.30;99.90
6098;DHT22;3077;50.922;6.584;2024-01-11T04:22:32;-4.30;99.90
6098;DHT22;3077;50.922;6.584;2024-01-11T04:24:57;-4.20;99.90
6098;DHT22;3077;50.922;6.584;2024-01-11T04:27:23;-4.30;99.90
6098;DHT22;3077;50.922;6.584;2024-01-11T04:29:49;-4.40;99.90
6098;DHT22;3077;50.922;6.584;2024-01-11T04:32:15;-4.40;99.90
6098;DHT22;3077;50.922;6.584;2024-01-11T04:34:40;-4.40;99.90
6098;DHT22;3077;50.922;6.584;2024-01-11T04:37:06;-4.40;99.90
6098;DHT22;3077;50.922;6.584;2024-01-11T04:39:32;-4.30;99.90
6098;DHT22;3077;50.922;6.584;2024-01-11T04:41:57;-4.40;99.90
6098;DHT22;3077;50.922;6.584;2024-01-11T04:44:23;-4.40;99.90
6098;DHT22;3077;50.922;6.584;2024-01-11T04:46:48;-4.20;99.90
6098;DHT22;3077;50.922;6.584;2024-01-11T04:49:14;-4.20;99.90
6098;DHT22;3077;50.922;6.584;2024-01-11T04:51:40;-4.20;99.90
6098;DHT22;3077;50.922;6.584;2024-01-11T04:54:05;-4.30;99.90
6098;DHT22;3077;50.922;6.584;2024-01-11T04:56:31;-4.30;99.90
6098;DHT22;3077;50.922;6.584;2024-01-11T04:58:56;-4.30;99.90
6098;DHT22;3077;50.922;6.584;2024-01-11T05:01:22;-4.50;99.90
6098;DHT22;3077;50.922;6.584;2024-01-11T05:03:48;-4.30;99.90
6098;DHT22;3077;50.922;6.584;2024-01-11T05:06:18;-4.50;99.90
6098;DHT22;3077;50.922;6.584;2024-01-11T05:08:47;-4.20;99.90
6098;DHT22;3077;50.922;6.584;2024-01-11T05:11:23;-4.20;99.90
6098;DHT22;3077;50.922;6.584;2024-01-11T05:13:52;-4.30;99.90
6098;DHT22;3077;50.922;6.584;2024-01-11T05:16:21;-4.10;99.90
6098;DHT22;3077;50.922;6.584;2024-01-11T05:18:48;-4.50;99.90
6098;DHT22;3077;50.922;6.584;2024-01-11T05:21:13;-4.30;99.90
6098;DHT22;3077;50.922;6.584;2024-01-11T05:23:43;-4.40;99.90
6098;DHT22;3077;50.922;6.584;2024-01-11T05:26:09;-4.30;99.90
6098;DHT22;3077;50.922;6.584;2024-01-11T05:28:35;-4.30;99.90
6098;DHT22;3077;50.922;6.584;2024-01-11T05:31:00;-4.30;99.90
6098;DHT22;3077;50.922;6.584;2024-01-11T05:33:26;-4.20;99.90
6098;DHT22;3077;50.922;6.584;2024-01-11T05:35:52;-4.20;99.90
6098;DHT22;3077;50.922;6.584;2024-01-11T05:38:19;-4.10;99.90
6098;DHT22;3077;50.922;6.584;2024-01-11T05:40:44;-4.20;99.90
6098;DHT22;3077;50.922;6.584;2024-01-11T05:43:10;-4.20;99.90
6098;DHT22;3077;50.922;6.584;2024-01-11T05:45:36;-4.10;99.90
6098;DHT22;3077;50.922;6.584;2024-01-11T05:48:01;-4.30;99.90
6098;DHT22;3077;50.922;6.584;2024-01-11T05:50:27;-4.30;99.90
6098;DHT22;3077;50.922;6.584;2024-01-11T05:52:53;-4.20;99.90
6098;DHT22;3077;50.922;6.584;2024-01-11T05:55:22;-4.20;99.90
6098;DHT22;3077;50.922;6.584;2024-01-11T05:57:48;-4.20;99.90
6098;DHT22;3077;50.922;6.584;2024-01-11T06:00:14;-4.20;99.90
6098;DHT22;3077;50.922;6.584;2024-01-11T06:02:39;-4.30;99.90
6098;DHT22;3077;50.922;6.584;2024-01-11T06:05:08;-4.20;99.90
6098;DHT22;3077;50.922;6.584;2024-01-11T06:07:34;-4.20;99.90
6098;DHT22;3077;50.922;6.584;2024-01-11T06:10:00;-4.20;99.90
6098;DHT22;3077;50.922;6.584;2024-01-11T06:12:28;-4.10;99.90
6098;DHT22;3077;50.922;6.584;2024-01-11T06:14:53;-4.20;99.90
6098;DHT22;3077;50.922;6.584;2024-01-11T06:17:19;-4.20;99.90
6098;DHT22;3077;50.922;6.584;2024-01-11T06:19:45;-4.20;99.90
6098;DHT22;3077;50.922;6.584;2024-01-11T06:22:10;-4.20;99.90
6098;DHT22;3077;50.922;6.584;2024-01-11T06:24:36;-4.50;99.90
6098;DHT22;3077;50.922;6.584;2024-01-11T06:27:01;-4.40;99.90
6098;DHT22;3077;50.922;6.584;2024-01-11T06:29:27;-4.50;99.90
6098;DHT22;3077;50.922;6.584;2024-01-11T06:31:53;-4.50;99.90
6098;DHT22;3077;50.922;6.584;2024-01-11T06:34:19;-4.50;99.90
6098;DHT22;3077;50.922;6.584;2024-01-11T06:36:45;-4.60;99.90
6098;DHT22;3077;50.922;6.584;2024-01-11T06:39:10;-4.60;99.90
6098;DHT22;3077;50.922;6.584;2024-01-11T06:41:38;-4.20;99.90
6098;DHT22;3077;50.922;6.584;2024-01-11T06:44:03;-4.40;99.90
6098;DHT22;3077;50.922;6.584;2024-01-11T06:46:29;-4.40;99.90
6098;DHT22;3077;50.922;6.584;2024-01-11T06:48:55;-4.40;99.90
6098;DHT22;3077;50.922;6.584;2024-01-11T06:51:22;-4.20;99.90
6098;DHT22;3077;50.922;6.584;2024-01-11T06:53:48;-4.30;99.90
6098;DHT22;3077;50.922;6.584;2024-01-11T06:56:16;-4.50;99.90
6098;DHT22;3077;50.922;6.584;2024-01-11T06:58:43;-4.60;99.90
6098;DHT22;3077;50.922;6.584;2024-01-11T07:01:09;-4.50;99.90
6098;DHT22;3077;50.922;6.584;2024-01-11T07:03:35;-4.60;99.90
6098;DHT22;3077;50.922;6.584;2024-01-11T07:06:00;-4.60;99.90
6098;DHT22;3077;50.922;6.584;2024-01-11T07:08:26;-4.50;99.90
6098;DHT22;3077;50.922;6.584;2024-01-11T07:10:51;-4.80;99.90
6098;DHT22;3077;50.922;6.584;2024-01-11T07:13:17;-4.60;99.90
6098;DHT22;3077;50.922;6.584;2024-01-11T07:18:09;-4.70;99.90
6098;DHT22;3077;50.922;6.584;2024-01-11T07:20:34;-4.60;99.90
6098;DHT22;3077;50.922;6.584;2024-01-11T07:23:00;-4.70;99.90
6098;DHT22;3077;50.922;6.584;2024-01-11T07:25:26;-4.60;99.90
6098;DHT22;3077;50.922;6.584;2024-01-11T07:27:52;-4.70;99.90
6098;DHT22;3077;50.922;6.584;2024-01-11T07:30:18;-4.60;99.90
6098;DHT22;3077;50.922;6.584;2024-01-11T07:32:46;-4.40;99.90
6098;DHT22;3077;50.922;6.584;2024-01-11T07:35:12;-4.70;99.90
6098;DHT22;3077;50.922;6.584;2024-01-11T07:37:38;-4.70;99.90
6098;DHT22;3077;50.922;6.584;2024-01-11T07:40:07;-4.60;99.90
6098;DHT22;3077;50.922;6.584;2024-01-11T07:42:37;-4.90;99.90
6098;DHT22;3077;50.922;6.584;2024-01-11T07:45:03;-4.70;99.90
6098;DHT22;3077;50.922;6.584;2024-01-11T07:47:30;-4.80;99.90
6098;DHT22;3077;50.922;6.584;2024-01-11T07:49:56;-4.90;99.90
6098;DHT22;3077;50.922;6.584;2024-01-11T07:52:21;-5.00;99.90
6098;DHT22;3077;50.922;6.584;2024-01-11T07:54:47;-5.00;99.90
6098;DHT22;3077;50.922;6.584;2024-01-11T07:57:13;-5.20;99.90
6098;DHT22;3077;50.922;6.584;2024-01-11T07:59:38;-5.00;99.90
6098;DHT22;3077;50.922;6.584;2024-01-11T08:02:04;-5.00;99.90
6098;DHT22;3077;50.922;6.584;2024-01-11T08:04:31;-4.80;99.90
6098;DHT22;3077;50.922;6.584;2024-01-11T08:06:57;-4.80;99.90
6098;DHT22;3077;50.922;6.584;2024-01-11T08:09:25;-4.60;99.90
6098;DHT22;3077;50.922;6.584;2024-01-11T08:11:51;-4.70;99.90
6098;DHT22;3077;50.922;6.584;2024-01-11T08:14:18;-4.60;99.90
6098;DHT22;3077;50.922;6.584;2024-01-11T08:16:43;-4.60;99.90
6098;DHT22;3077;50.922;6.584;2024-01-11T08:19:09;-4.40;99.90
6098;DHT22;3077;50.922;6.584;2024-01-11T08:21:35;-4.40;99.90
6098;DHT22;3077;50.922;6.584;2024-01-11T08:24:01;-4.40;99.90
6098;DHT22;3077;50.922;6.584;2024-01-11T08:26:28;-4.20;99.90
6098;DHT22;3077;50.922;6.584;2024-01-11T08:28:53;-4.30;99.90
6098;DHT22;3077;50.922;6.584;2024-01-11T08:31:19;-4.30;99.90
6098;DHT22;3077;50.922;6.584;2024-01-11T08:33:45;-4.30;99.90
6098;DHT22;3077;50.922;6.584;2024-01-11T08:36:10;-4.40;99.90
6098;DHT22;3077;50.922;6.584;2024-01-11T08:38:36;-4.30;99.90
6098;DHT22;3077;50.922;6.584;2024-01-11T08:41:02;-4.20;99.90
6098;DHT22;3077;50.922;6.584;2024-01-11T08:43:28;-4.10;99.90
6098;DHT22;3077;50.922;6.584;2024-01-11T08:45:54;-4.00;99.90
6098;DHT22;3077;50.922;6.584;2024-01-11T08:48:20;-3.90;99.90
6098;DHT22;3077;50.922;6.584;2024-01-11T08:50:46;-3.90;99.90
6098;DHT22;3077;50.922;6.584;2024-01-11T08:53:12;-3.70;99.90
6098;DHT22;3077;50.922;6.584;2024-01-11T08:55:38;-3.70;99.90
6098;DHT22;3077;50.922;6.584;2024-01-11T08:58:03;-3.40;99.90
6098;DHT22;3077;50.922;6.584;2024-01-11T09:00:29;-3.60;99.90
6098;DHT22;3077;50.922;6.584;2024-01-11T09:02:55;-3.70;99.90
6098;DHT22;3077;50.922;6.584;2024-01-11T09:05:21;-3.70;99.90
6098;DHT22;3077;50.922;6.584;2024-01-11T09:07:47;-3.60;99.90
6098;DHT22;3077;50.922;6.584;2024-01-11T09:10:12;-3.60;99.90
6098;DHT22;3077;50.922;6.584;2024-01-11T09:12:38;-3.40;99.90
6098;DHT22;3077;50.922;6.584;2024-01-11T09:15:04;-3.40;99.90
6098;DHT22;3077;50.922;6.584;2024-01-11T09:17:30;-3.30;99.90
6098;DHT22;3077;50.922;6.584;2024-01-11T09:19:56;-3.20;99.90
6098;DHT22;3077;50.922;6.584;2024-01-11T09:22:21;-3.10;99.90
6098;DHT22;3077;50.922;6.584;2024-01-11T09:24:47;-3.00;99.90
6098;DHT22;3077;50.922;6.584;2024-01-11T09:27:13;-3.00;99.90
6098;DHT22;3077;50.922;6.584;2024-01-11T09:29:45;-3.10;99.90
6098;DHT22;3077;50.922;6.584;2024-01-11T09:32:12;-3.00;99.90
6098;DHT22;3077;50.922;6.584;2024-01-11T09:34:37;-2.90;99.90
6098;DHT22;3077;50.922;6.584;2024-01-11T09:37:03;-2.90;99.90
6098;DHT22;3077;50.922;6.584;2024-01-11T09:39:29;-2.80;99.90
6098;DHT22;3077;50.922;6.584;2024-01-11T09:41:59;-2.50;99.90
6098;DHT22;3077;50.922;6.584;2024-01-11T09:44:29;-2.60;99.90
6098;DHT22;3077;50.922;6.584;2024-01-11T09:46:57;-2.60;99.90
6098;DHT22;3077;50.922;6.584;2024-01-11T09:49:23;-2.40;99.90
6098;DHT22;3077;50.922;6.584;2024-01-11T09:51:51;-2.30;99.90
6098;DHT22;3077;50.922;6.584;2024-01-11T09:54:19;-2.30;99.90
6098;DHT22;3077;50.922;6.584;2024-01-11T09:56:46;-2.00;99.90
6098;DHT22;3077;50.922;6.584;2024-01-11T09:59:17;-2.00;99.90
6098;DHT22;3077;50.922;6.584;2024-01-11T10:01:43;-2.00;97.70
6098;DHT22;3077;50.922;6.584;2024-01-11T10:04:09;-1.90;96.60
6098;DHT22;3077;50.922;6.584;2024-01-11T10:06:38;-1.90;94.90
6098;DHT22;3077;50.922;6.584;2024-01-11T10:09:04;-2.00;94.20
6098;DHT22;3077;50.922;6.584;2024-01-11T10:11:30;-2.00;94.20
6098;DHT22;3077;50.922;6.584;2024-01-11T10:13:57;-1.90;95.10
6098;DHT22;3077;50.922;6.584;2024-01-11T10:16:23;-1.80;95.40
6098;DHT22;3077;50.922;6.584;2024-01-11T10:18:49;-1.60;95.60
6098;DHT22;3077;50.922;6.584;2024-01-11T10:21:15;-1.70;89.00
6098;DHT22;3077;50.922;6.584;2024-01-11T10:23:41;-2.00;81.60
6098;DHT22;3077;50.922;6.584;2024-01-11T10:26:07;-2.10;99.90
6098;DHT22;3077;50.922;6.584;2024-01-11T10:28:32;-2.00;89.80
6098;DHT22;3077;50.922;6.584;2024-01-11T10:31:03;-2.00;90.80
6098;DHT22;3077;50.922;6.584;2024-01-11T10:33:30;-2.00;94.00
6098;DHT22;3077;50.922;6.584;2024-01-11T10:35:55;-2.00;95.80
6098;DHT22;3077;50.922;6.584;2024-01-11T10:38:22;-1.90;96.20
6098;DHT22;3077;50.922;6.584;2024-01-11T10:40:48;-1.80;96.70
6098;DHT22;3077;50.922;6.584;2024-01-11T10:43:19;-1.80;92.60
6098;DHT22;3077;50.922;6.584;2024-01-11T10:45:48;-1.70;92.80
6098;DHT22;3077;50.922;6.584;2024-01-11T10:48:16;-1.40;95.10
6098;DHT22;3077;50.922;6.584;2024-01-11T10:50:46;-1.30;94.10
6098;DHT22;3077;50.922;6.584;2024-01-11T10:55:50;-1.30;79.90
6098;DHT22;3077;50.922;6.584;2024-01-11T10:58:16;-1.10;89.20
6098;DHT22;3077;50.922;6.584;2024-01-11T11:00:44;-1.20;77.30
6098;DHT22;3077;50.922;6.584;2024-01-11T11:03:11;-1.10;81.10
6098;DHT22;3077;50.922;6.584;2024-01-11T11:05:38;-1.10;80.10
6098;DHT22;3077;50.922;6.584;2024-01-11T11:08:04;-1.20;82.50
6098;DHT22;3077;50.922;6.584;2024-01-11T11:10:34;-1.10;86.00
6098;DHT22;3077;50.922;6.584;2024-01-11T11:13:00;-1.10;81.50
6098;DHT22;3077;50.922;6.584;2024-01-11T11:15:29;-0.90;86.80
6098;DHT22;3077;50.922;6.584;2024-01-11T11:17:55;-0.80;87.90
6098;DHT22;3077;50.922;6.584;2024-01-11T11:20:20;-0.50;90.00
6098;DHT22;3077;50.922;6.584;2024-01-11T11:23:06;-0.40;84.50
6098;DHT22;3077;50.922;6.584;2024-01-11T11:25:32;-0.40;74.10
6098;DHT22;3077;50.922;6.584;2024-01-11T11:27:58;-0.20;68.70
6098;DHT22;3077;50.922;6.584;2024-01-11T11:30:30;-0.10;67.30
6098;DHT22;3077;50.922;6.584;2024-01-11T11:32:55;0.30;60.60
6098;DHT22;3077;50.922;6.584;2024-01-11T11:35:24;0.80;53.50
6098;DHT22;3077;50.922;6.584;2024-01-11T11:37:56;1.10;45.30
6098;DHT22;3077;50.922;6.584;2024-01-11T11:40:37;1.10;44.90
6098;DHT22;3077;50.922;6.584;2024-01-11T11:43:08;1.40;38.10
6098;DHT22;3077;50.922;6.584;2024-01-11T11:45:34;1.60;35.40
6098;DHT22;3077;50.922;6.584;2024-01-11T11:48:01;1.60;34.00
6098;DHT22;3077;50.922;6.584;2024-01-11T11:50:29;1.60;32.30
6098;DHT22;3077;50.922;6.584;2024-01-11T11:52:57;1.90;36.30
6098;DHT22;3077;50.922;6.584;2024-01-11T11:55:23;2.40;28.30
6098;DHT22;3077;50.922;6.584;2024-01-11T11:57:53;2.60;24.80
6098;DHT22;3077;50.922;6.584;2024-01-11T12:00:20;2.80;23.70
6098;DHT22;3077;50.922;6.584;2024-01-11T12:02:47;4.20;21.90
6098;DHT22;3077;50.922;6.584;2024-01-11T12:05:14;3.80;22.60
6098;DHT22;3077;50.922;6.584;2024-01-11T12:07:39;4.50;22.00
6098;DHT22;3077;50.922;6.584;2024-01-11T12:10:05;6.20;17.40
6098;DHT22;3077;50.922;6.584;2024-01-11T12:12:34;5.90;5.20
6098;DHT22;3077;50.922;6.584;2024-01-11T12:14:59;7.10;1.00
6098;DHT22;3077;50.922;6.584;2024-01-11T12:17:25;7.30;1.00
6098;DHT22;3077;50.922;6.584;2024-01-11T12:19:52;8.20;1.00
6098;DHT22;3077;50.922;6.584;2024-01-11T12:22:17;8.70;1.00
6098;DHT22;3077;50.922;6.584;2024-01-11T12:24:45;9.50;1.00
6098;DHT22;3077;50.922;6.584;2024-01-11T12:27:11;9.10;1.00
6098;DHT22;3077;50.922;6.584;2024-01-11T12:29:39;7.70;1.00
6098;DHT22;3077;50.922;6.584;2024-01-11T12:32:04;7.30;1.00
6098;DHT22;3077;50.922;6.584;2024-01-11T12:34:30;5.50;1.00
6098;DHT22;3077;50.922;6.584;2024-01-11T12:36:56;5.10;1.00
6098;DHT22;3077;50.922;6.584;2024-01-11T12:39:26;5.00;1.00
6098;DHT22;3077;50.922;6.584;2024-01-11T12:41:54;5.40;1.00
6098;DHT22;3077;50.922;6.584;2024-01-11T12:44:23;4.70;1.00
6098;DHT22;3077;50.922;6.584;2024-01-11T12:46:49;5.80;1.00
6098;DHT22;3077;50.922;6.584;2024-01-11T12:49:15;6.30;1.00
6098;DHT22;3077;50.922;6.584;2024-01-11T12:51:41;7.80;1.00
6098;DHT22;3077;50.922;6.584;2024-01-11T12:54:12;8.30;1.00
6098;DHT22;3077;50.922;6.584;2024-01-11T12:56:41;8.20;1.00
6098;DHT22;3077;50.922;6.584;2024-01-11T12:59:10;8.20;1.00
6098;DHT22;3077;50.922;6.584;2024-01-11T13:01:38;8.30;1.00
6098;DHT22;3077;50.922;6.584;2024-01-11T13:04:04;8.20;1.00
6098;DHT22;3077;50.922;6.584;2024-01-11T13:06:30;8.60;1.00
6098;DHT22;3077;50.922;6.584;2024-01-11T13:08:56;8.80;1.00
6098;DHT22;3077;50.922;6.584;2024-01-11T13:11:22;9.50;1.00
6098;DHT22;3077;50.922;6.584;2024-01-11T13:13:50;8.80;1.00
6098;DHT22;3077;50.922;6.584;2024-01-11T13:16:17;9.40;1.00
6098;DHT22;3077;50.922;6.584;2024-01-11T13:18:44;9.90;1.00
6098;DHT22;3077;50.922;6.584;2024-01-11T13:21:10;9.90;1.00
6098;DHT22;3077;50.922;6.584;2024-01-11T13:23:37;10.60;1.00
6098;DHT22;3077;50.922;6.584;2024-01-11T13:26:03;10.00;1.00
6098;DHT22;3077;50.922;6.584;2024-01-11T13:28:30;9.70;1.00
6098;DHT22;3077;50.922;6.584;2024-01-11T13:30:55;9.70;1.00
6098;DHT22;3077;50.922;6.584;2024-01-11T13:33:21;9.10;1.00
6098;DHT22;3077;50.922;6.584;2024-01-11T13:35:49;8.80;1.00
6098;DHT22;3077;50.922;6.584;2024-01-11T13:38:15;8.00;1.00
6098;DHT22;3077;50.922;6.584;2024-01-11T13:40:40;6.40;1.00
6098;DHT22;3077;50.922;6.584;2024-01-11T13:43:08;5.50;1.00
6098;DHT22;3077;50.922;6.584;2024-01-11T13:45:35;5.50;1.00
6098;DHT22;3077;50.922;6.584;2024-01-11T13:48:04;6.50;1.00
6098;DHT22;3077;50.922;6.584;2024-01-11T13:50:31;5.40;1.00
6098;DHT22;3077;50.922;6.584;2024-01-11T13:52:56;5.30;1.00
6098;DHT22;3077;50.922;6.584;2024-01-11T13:55:22;5.50;1.00
6098;DHT22;3077;50.922;6.584;2024-01-11T13:57:51;5.70;1.00
6098;DHT22;3077;50.922;6.584;2024-01-11T14:00:18;5.70;1.00
6098;DHT22;3077;50.922;6.584;2024-01-11T14:02:47;5.80;1.00
6098;DHT22;3077;50.922;6.584;2024-01-11T14:05:14;7.00;1.00
6098;DHT22;3077;50.922;6.584;2024-01-11T14:07:43;5.90;1.00
6098;DHT22;3077;50.922;6.584;2024-01-11T14:10:10;6.30;1.00
6098;DHT22;3077;50.922;6.584;2024-01-11T14:12:37;7.00;1.00
6098;DHT22;3077;50.922;6.584;2024-01-11T14:15:07;6.00;1.00
6098;DHT22;3077;50.922;6.584;2024-01-11T14:17:38;5.80;1.00
6098;DHT22;3077;50.922;6.584;2024-01-11T14:20:06;6.00;1.00
6098;DHT22;3077;50.922;6.584;2024-01-11T14:22:44;5.90;1.00
6098;DHT22;3077;50.922;6.584;2024-01-11T14:25:19;5.50;1.00
6098;DHT22;3077;50.922;6.584;2024-01-11T14:27:45;5.20;1.00
6098;DHT22;3077;50.922;6.584;2024-01-11T14:30:12;5.30;1.00
6098;DHT22;3077;50.922;6.584;2024-01-11T14:32:38;5.40;1.00
6098;DHT22;3077;50.922;6.584;2024-01-11T14:35:05;6.10;1.00
6098;DHT22;3077;50.922;6.584;2024-01-11T14:37:34;5.40;1.00
6098;DHT22;3077;50.922;6.584;2024-01-11T14:40:00;6.10;1.00
6098;DHT22;3077;50.922;6.584;2024-01-11T14:42:26;5.00;1.00
6098;DHT22;3077;50.922;6.584;2024-01-11T14:44:52;4.60;1.00
6098;DHT22;3077;50.922;6.584;2024-01-11T14:47:18;4.30;1.00
6098;DHT22;3077;50.922;6.584;2024-01-11T14:49:45;4.10;1.00
6098;DHT22;3077;50.922;6.584;2024-01-11T14:52:10;3.90;1.00
6098;DHT22;3077;50.922;6.584;2024-01-11T14:54:36;3.70;1.00
6098;DHT22;3077;50.922;6.584;2024-01-11T14:57:01;3.60;1.00
6098;DHT22;3077;50.922;6.584;2024-01-11T14:59:27;3.60;1.00
6098;DHT22;3077;50.922;6.584;2024-01-11T15:01:53;3.60;1.00
6098;DHT22;3077;50.922;6.584;2024-01-11T15:04:19;4.80;1.00
6098;DHT22;3077;50.922;6.584;2024-01-11T15:06:44;3.30;1.00
6098;DHT22;3077;50.922;6.584;2024-01-11T15:09:10;3.30;1.00
6098;DHT22;3077;50.922;6.584;2024-01-11T15:11:38;3.20;1.00
6098;DHT22;3077;50.922;6.584;2024-01-11T15:14:05;2.80;1.00
6098;DHT22;3077;50.922;6.584;2024-01-11T15:16:31;2.90;1.00
6098;DHT22;3077;50.922;6.584;2024-01-11T15:18:56;3.00;1.00
6098;DHT22;3077;50.922;6.584;2024-01-11T15:21:22;2.90;1.00
6098;DHT22;3077;50.922;6.584;2024-01-11T15:23:47;2.80;1.00
6098;DHT22;3077;50.922;6.584;2024-01-11T15:26:13;2.60;14.60
6098;DHT22;3077;50.922;6.584;2024-01-11T15:28:39;2.50;1.00
6098;DHT22;3077;50.922;6.584;2024-01-11T15:31:05;2.60;1.00
6098;DHT22;3077;50.922;6.584;2024-01-11T15:33:31;2.30;1.00
6098;DHT22;3077;50.922;6.584;2024-01-11T15:35:57;2.10;1.40
6098;DHT22;3077;50.922;6.584;2024-01-11T15:38:22;1.90;5.60
6098;DHT22;3077;50.922;6.584;2024-01-11T15:40:48;1.70;7.60
6098;DHT22;3077;50.922;6.584;2024-01-11T15:43:14;1.60;9.00
6098;DHT22;3077;50.922;6.584;2024-01-11T15:45:39;1.30;15.00
6098;DHT22;3077;50.922;6.584;2024-01-11T15:48:05;1.00;25.20
6098;DHT22;3077;50.922;6.584;2024-01-11T15:50:31;0.50;30.20
6098;DHT22;3077;50.922;6.584;2024-01-11T15:52:56;0.50;38.00
6098;DHT22;3077;50.922;6.584;2024-01-11T15:55:22;0.30;41.30
6098;DHT22;3077;50.922;6.584;2024-01-11T15:57:48;0.20;42.70
6098;DHT22;3077;50.922;6.584;2024-01-11T16:00:14;0.10;49.90
6098;DHT22;3077;50.922;6.584;2024-01-11T16:02:41;-0.20;49.20
6098;DHT22;3077;50.922;6.584;2024-01-11T16:05:09;-0.10;53.80
6098;DHT22;3077;50.922;6.584;2024-01-11T16:07:35;-0.20;51.10
6098;DHT22;3077;50.922;6.584;2024-01-11T16:10:01;-0.30;57.70